Time;durP1;ratioP1;P1;durP2;ratioP2;P2;SDS_P1;SDS_P2;PMS_P1;PMS_P2;Temp;Humidity;BMP_temperature;BMP_pressure;BME280_temperature;BME280_humidity;BME280_pressure;Samples;Min_cycle;Max_cycle;Signal;HPM_P1;HPM_P2
2022/07/18 00:01:31;;;;;;;11.20;6.82;;;;;;;17.27;86.53;99564.50;5104898;28;20020;-62
2022/07/18 00:03:57;;;;;;;9.40;5.63;;;;;;;17.22;86.92;99560.34;5104770;28;20061;-62
2022/07/18 00:06:22;;;;;;;10.43;6.70;;;;;;;17.31;86.62;99558.19;5104581;28;20027;-63
2022/07/18 00:08:48;;;;;;;9.00;6.00;;;;;;;17.28;87.27;99568.81;5103731;28;20317;-63
2022/07/18 00:11:13;;;;;;;7.00;5.57;;;;;;;17.26;87.19;99561.03;5104776;28;20035;-63
2022/07/18 00:13:39;;;;;;;8.75;6.35;;;;;;;17.23;87.18;99562.03;5104605;28;20332;-62
2022/07/18 00:16:05;;;;;;;8.82;6.05;;;;;;;17.25;86.91;99554.94;5104402;28;20028;-63
2022/07/18 00:18:30;;;;;;;7.70;5.82;;;;;;;17.22;86.85;99557.72;5104314;28;20019;-62
2022/07/18 00:20:56;;;;;;;8.90;6.13;;;;;;;17.16;87.38;99551.94;5104401;28;20035;-63
2022/07/18 00:23:22;;;;;;;6.93;5.63;;;;;;;17.26;87.03;99558.44;5104294;28;20034;-63
2022/07/18 00:25:48;;;;;;;13.00;5.43;;;;;;;17.21;86.58;99552.56;5104362;28;20051;-62
2022/07/18 00:28:14;;;;;;;7.40;5.47;;;;;;;17.16;86.40;99547.56;5104012;28;20044;-62
2022/07/18 00:30:41;;;;;;;11.65;6.03;;;;;;;17.22;86.48;99552.50;5104193;28;20027;-63
2022/07/18 00:33:07;;;;;;;6.00;5.25;;;;;;;17.25;86.29;99549.72;5104453;28;20039;-63
2022/07/18 00:35:32;;;;;;;9.45;5.63;;;;;;;17.20;85.28;99543.03;5102839;28;20024;-63
2022/07/18 00:37:58;;;;;;;8.55;6.03;;;;;;;17.16;85.79;99554.56;5103878;28;20343;-62
2022/07/18 00:40:24;;;;;;;10.43;6.18;;;;;;;17.06;86.67;99549.81;5103924;28;20028;-63
2022/07/18 00:42:50;;;;;;;7.85;5.10;;;;;;;17.08;86.65;99547.94;5104070;28;20051;-63
2022/07/18 00:45:15;;;;;;;6.25;5.38;;;;;;;17.15;86.95;99552.88;5103843;28;20027;-62
2022/07/18 00:47:41;;;;;;;7.05;5.55;;;;;;;17.18;86.05;99544.88;5103724;28;20047;-63
2022/07/18 00:50:08;;;;;;;8.85;5.70;;;;;;;17.12;86.46;99547.81;5103839;28;20027;-62
2022/07/18 00:52:34;;;;;;;6.60;5.35;;;;;;;16.84;86.38;99507.31;5103667;28;20083;-63
2022/07/18 00:55:00;;;;;;;6.80;6.07;;;;;;;17.02;86.38;99557.91;5102745;28;20174;-63
2022/07/18 00:57:27;;;;;;;7.05;6.20;;;;;;;16.66;86.40;99501.22;5103729;28;20024;-63
2022/07/18 01:02:39;;;;;;;7.50;5.90;;;;;;;16.84;87.04;99539.53;5103656;28;20052;-63
2022/07/18 01:05:06;;;;;;;7.80;5.88;;;;;;;16.91;86.36;99550.56;5103439;28;20090;-63
2022/07/18 01:07:33;;;;;;;7.35;5.40;;;;;;;16.90;86.66;99562.81;5103330;28;20204;-63
2022/07/18 01:09:59;;;;;;;8.13;5.88;;;;;;;16.94;86.61;99545.19;5103425;28;20027;-63
2022/07/18 01:12:26;;;;;;;5.28;4.78;;;;;;;16.90;86.20;99551.50;5103301;28;20065;-63
2022/07/18 01:14:51;;;;;;;10.43;6.22;;;;;;;16.85;86.31;99558.72;5102431;28;20095;-62
2022/07/18 01:17:18;;;;;;;11.30;5.90;;;;;;;16.87;85.59;99549.00;5103214;28;20019;-62
2022/07/18 01:19:46;;;;;;;8.88;6.00;;;;;;;16.51;85.93;99502.84;5103106;28;20220;-63
2022/07/18 01:22:15;;;;;;;10.02;6.35;;;;;;;16.73;85.80;99537.47;5095719;28;20224;-63
2022/07/18 01:24:41;;;;;;;9.07;6.40;;;;;;;16.77;86.10;99550.38;5102975;28;20091;-63
2022/07/18 01:27:06;;;;;;;9.18;6.75;;;;;;;16.76;86.39;99546.94;5102989;28;20040;-63
2022/07/18 01:29:32;;;;;;;7.85;5.63;;;;;;;16.73;86.24;99549.69;5101665;28;20024;-63
2022/07/18 01:32:06;;;;;;;7.72;5.90;;;;;;;16.69;86.07;99535.91;5103288;28;20065;-63
2022/07/18 01:34:32;;;;;;;10.50;6.65;;;;;;;16.70;85.33;99537.63;5102891;28;20028;-63
2022/07/18 01:36:57;;;;;;;9.07;6.53;;;;;;;16.76;85.80;99544.31;5103008;28;20296;-63
2022/07/18 01:39:23;;;;;;;9.70;6.82;;;;;;;16.68;85.70;99534.22;5101955;28;20020;-63
2022/07/18 01:42:01;;;;;;;8.70;6.03;;;;;;;16.72;85.51;99541.00;5101353;28;20066;-63
2022/07/18 01:44:27;;;;;;;9.65;5.95;;;;;;;16.76;84.92;99543.44;5102780;28;20201;-63
2022/07/18 01:46:53;;;;;;;10.70;6.10;;;;;;;16.78;85.28;99541.63;5102643;28;20024;-63
2022/07/18 01:49:19;;;;;;;9.48;5.82;;;;;;;16.74;84.68;99544.41;5102771;28;20058;-63
2022/07/18 01:51:53;;;;;;;7.88;5.93;;;;;;;16.64;85.27;99531.84;5101725;28;20082;-63
2022/07/18 01:54:26;;;;;;;8.60;5.40;;;;;;;16.70;84.52;99537.63;5102787;28;20024;-64
2022/07/18 01:56:52;;;;;;;7.53;5.28;;;;;;;16.73;84.14;99540.06;5082522;28;20029;-63
2022/07/18 01:59:18;;;;;;;7.57;5.15;;;;;;;16.75;84.50;99529.53;5098164;28;20182;-63
2022/07/18 02:01:44;;;;;;;8.32;5.57;;;;;;;16.84;84.34;99536.06;5102859;28;20040;-63
2022/07/18 02:04:10;;;;;;;8.02;5.20;;;;;;;16.88;83.67;99540.28;5102617;28;20024;-64
2022/07/18 02:06:35;;;;;;;8.50;5.70;;;;;;;16.90;83.72;99544.50;5101212;28;20061;-63
2022/07/18 02:09:02;;;;;;;8.43;5.63;;;;;;;16.89;84.15;99532.34;5102647;28;20058;-64
2022/07/18 02:11:27;;;;;;;9.95;6.72;;;;;;;16.93;83.38;99535.66;5102567;28;20035;-63
2022/07/18 02:13:54;;;;;;;9.68;6.32;;;;;;;16.95;84.16;99544.28;5102266;28;20024;-64
2022/07/18 02:16:19;;;;;;;7.55;6.07;;;;;;;16.96;84.09;99537.25;5102394;28;20066;-64
2022/07/18 02:18:45;;;;;;;7.97;5.97;;;;;;;16.98;84.81;99536.25;5102319;28;20024;-64
2022/07/18 02:21:13;;;;;;;8.23;5.80;;;;;;;16.99;84.38;99537.13;5102539;28;20320;-64
2022/07/18 02:23:40;;;;;;;8.55;5.88;;;;;;;17.02;84.68;99536.97;5102044;28;20031;-64
2022/07/18 02:26:06;;;;;;;9.70;6.47;;;;;;;17.04;84.99;99541.19;5101939;28;20072;-64
2022/07/18 02:28:31;;;;;;;8.95;6.35;;;;;;;16.99;85.40;99537.13;5101697;28;20040;-63
2022/07/18 02:30:57;;;;;;;9.20;5.65;;;;;;;16.95;85.11;99536.41;5102204;28;20031;-63
2022/07/18 02:33:22;;;;;;;10.57;6.32;;;;;;;16.95;85.16;99530.34;5105165;28;20030;-64
2022/07/18 02:35:48;;;;;;;8.75;6.00;;;;;;;16.99;84.26;99526.66;5105290;28;20070;-64
2022/07/18 02:38:14;;;;;;;8.05;5.72;;;;;;;16.99;84.00;99522.25;5106087;28;20016;-64
2022/07/18 02:40:39;;;;;;;9.30;5.75;;;;;;;17.03;83.57;99529.03;5106273;28;20213;-64
2022/07/18 02:43:05;;;;;;;8.05;5.78;;;;;;;17.08;83.38;99523.56;5106215;28;20035;-64
2022/07/18 02:45:31;;;;;;;15.43;6.63;;;;;;;17.04;83.50;99525.47;5105886;28;20027;-64
2022/07/18 02:47:56;;;;;;;10.98;6.90;;;;;;;17.04;83.93;99525.47;5106054;28;20028;-64
2022/07/18 02:50:22;;;;;;;9.85;6.63;;;;;;;17.01;84.14;99530.88;5105989;28;20320;-64
2022/07/18 02:52:48;;;;;;;11.10;6.15;;;;;;;17.04;83.97;99530.72;5106116;28;20027;-64
2022/07/18 02:55:14;;;;;;;8.38;6.07;;;;;;;17.02;84.99;99527.34;5106102;28;20032;-63
2022/07/18 02:57:40;;;;;;;10.02;6.53;;;;;;;17.00;84.56;99530.94;5105926;28;20316;-63
2022/07/18 03:00:09;;;;;;;11.52;5.28;;;;;;;16.86;84.02;99511.53;5105893;28;20024;-63
2022/07/18 03:02:35;;;;;;;8.75;6.00;;;;;;;16.99;84.54;99529.28;5106008;28;20020;-63
2022/07/18 03:05:01;;;;;;;7.20;4.90;;;;;;;17.02;84.12;99529.97;5104860;28;20258;-63
2022/07/18 03:07:26;;;;;;;8.18;4.97;;;;;;;17.07;83.72;99538.44;5105660;28;20251;-63
2022/07/18 03:09:52;;;;;;;6.97;4.88;;;;;;;17.04;83.02;99525.47;5105575;28;20028;-64
2022/07/18 03:12:18;;;;;;;6.68;4.90;;;;;;;17.11;83.72;99533.88;5105833;28;20040;-63
2022/07/18 03:14:44;;;;;;;7.15;4.95;;;;;;;17.11;83.10;99530.41;5105676;28;20044;-63
2022/07/18 03:17:10;;;;;;;8.20;4.70;;;;;;;17.15;81.95;99534.56;5105799;28;20028;-64
2022/07/18 03:19:35;;;;;;;6.60;4.10;;;;;;;17.17;81.91;99530.97;5104039;28;20034;-63
2022/07/18 03:22:03;;;;;;;6.82;4.68;;;;;;;17.17;82.89;99535.31;5104434;28;20020;-63
2022/07/18 03:24:28;;;;;;;5.93;4.82;;;;;;;17.15;82.21;99532.78;5105435;28;20249;-63
2022/07/18 03:26:54;;;;;;;7.50;4.60;;;;;;;17.14;81.86;99535.50;5104815;28;20034;-63
2022/07/18 03:29:19;;;;;;;6.47;4.05;;;;;;;17.17;81.28;99532.72;5102439;28;20082;-64
2022/07/18 03:31:45;;;;;;;6.43;4.63;;;;;;;17.13;81.81;99536.41;5122269;28;20042;-63
2022/07/18 03:34:11;;;;;;;5.93;4.43;;;;;;;17.17;81.31;99530.09;5120069;28;20035;-63
2022/07/18 03:36:37;;;;;;;5.20;4.40;;;;;;;17.13;81.07;99529.41;5105252;28;20059;-63
2022/07/18 03:39:04;;;;;;;7.45;4.93;;;;;;;17.13;81.47;99528.56;5105294;28;20032;-63
2022/07/18 03:41:29;;;;;;;7.03;4.72;;;;;;;17.10;81.26;99531.34;5105171;28;20347;-64
2022/07/18 03:43:55;;;;;;;7.22;4.57;;;;;;;17.17;81.60;99535.31;5103849;28;20024;-63
2022/07/18 03:46:21;;;;;;;5.95;5.10;;;;;;;17.13;81.20;99534.66;5105017;28;20028;-63
2022/07/18 03:48:47;;;;;;;8.93;5.13;;;;;;;17.05;81.42;99539.44;5104984;28;20059;-63
2022/07/18 03:51:13;;;;;;;11.18;6.40;;;;;;;17.05;80.71;99536.81;5105227;28;20051;-63
2022/07/18 03:53:38;;;;;;;10.30;6.25;;;;;;;17.12;80.59;99543.41;5105187;28;20034;-63
2022/07/18 03:56:04;;;;;;;10.77;5.75;;;;;;;17.15;80.47;99542.44;5104853;28;20024;-63
2022/07/18 03:58:30;;;;;;;10.68;6.43;;;;;;;17.21;80.19;99536.88;5104682;28;20034;-63
2022/07/18 04:00:55;;;;;;;9.75;6.07;;;;;;;17.22;80.66;99547.25;5104964;28;20208;-63
2022/07/18 04:03:21;;;;;;;9.40;6.03;;;;;;;17.11;80.85;99536.50;5104677;28;20048;-63
2022/07/18 04:05:47;;;;;;;11.23;6.25;;;;;;;17.23;81.13;99542.88;5104655;28;20031;-63
2022/07/18 04:08:13;;;;;;;7.28;5.35;;;;;;;17.26;81.72;99540.09;5104538;28;20320;-63
2022/07/18 04:10:39;;;;;;;8.38;5.60;;;;;;;17.27;81.46;99531.31;5104669;28;20091;-63
2022/07/18 04:13:06;;;;;;;10.40;6.13;;;;;;;17.33;81.81;99538.88;5104677;28;20063;-64
2022/07/18 04:15:32;;;;;;;8.80;5.28;;;;;;;17.28;81.32;99540.03;5104454;28;20028;-65
2022/07/18 04:17:57;;;;;;;8.27;5.10;;;;;;;17.19;81.23;99544.81;5104527;28;20023;-65
2022/07/18 04:20:24;;;;;;;8.13;5.55;;;;;;;17.19;80.83;99543.97;5104469;28;20077;-64
2022/07/18 04:22:58;;;;;;;6.50;4.50;;;;;;;17.06;81.30;99512.34;5103307;28;20051;-65
2022/07/18 04:25:26;;;;;;;6.10;4.28;;;;;;;16.93;80.82;99485.97;5099940;28;20032;-64
2022/07/18 04:27:53;;;;;;;7.13;3.97;;;;;;;17.29;80.47;99539.06;5103834;28;20328;-64
2022/07/18 04:30:21;;;;;;;5.35;3.67;;;;;;;17.26;80.29;99545.34;5109211;28;20034;-64
2022/07/18 04:32:47;;;;;;;4.82;3.97;;;;;;;17.28;80.81;99543.47;5124583;28;20023;-64
2022/07/18 04:35:13;;;;;;;6.47;3.50;;;;;;;17.28;81.25;99537.41;5111103;28;20090;-64
2022/07/18 04:37:40;;;;;;;4.32;3.25;;;;;;;17.29;80.26;99545.19;5103485;28;20028;-64
2022/07/18 04:40:07;;;;;;;5.50;3.30;;;;;;;17.33;79.37;99544.09;5103697;28;20084;-64
2022/07/18 04:42:33;;;;;;;5.65;3.40;;;;;;;17.36;79.16;99530.00;5103848;28;20024;-63
2022/07/18 04:44:58;;;;;;;3.88;3.05;;;;;;;17.45;78.29;99531.28;5103941;28;20024;-64
2022/07/18 04:47:28;;;;;;;4.47;3.05;;;;;;;17.46;77.52;99533.84;5103718;28;20114;-64
2022/07/18 04:49:54;;;;;;;4.03;2.90;;;;;;;17.48;76.56;99528.50;5103633;28;20097;-64
2022/07/18 04:52:21;;;;;;;3.40;2.90;;;;;;;17.47;76.72;99529.44;5103417;28;20028;-64
2022/07/18 04:54:47;;;;;;;3.22;2.83;;;;;;;17.47;77.56;99526.81;5103133;28;20032;-64
2022/07/18 04:57:14;;;;;;;6.65;3.08;;;;;;;17.48;77.74;99518.88;5103707;28;20023;-64
2022/07/18 04:59:46;;;;;;;6.50;3.30;;;;;;;17.49;76.81;99519.75;5103452;28;20024;-64
2022/07/18 05:02:12;;;;;;;5.70;2.85;;;;;;;17.56;77.21;99523.72;5103354;28;20048;-64
2022/07/18 05:04:38;;;;;;;4.88;2.80;;;;;;;17.56;77.16;99521.09;5103356;28;20225;-64
2022/07/18 05:07:05;;;;;;;3.25;2.95;;;;;;;17.68;77.16;99530.06;5103730;28;20031;-64
2022/07/18 05:09:30;;;;;;;6.10;3.03;;;;;;;17.67;77.01;99537.09;5103182;28;20050;-63
2022/07/18 05:11:56;;;;;;;4.75;3.00;;;;;;;17.73;76.98;99543.78;5103372;28;20315;-64
2022/07/18 05:14:22;;;;;;;4.45;3.22;;;;;;;17.72;76.26;99545.53;5103194;28;20256;-64
2022/07/18 05:16:48;;;;;;;5.68;3.22;;;;;;;17.73;76.42;99544.63;5103316;28;20024;-64
2022/07/18 05:19:17;;;;;;;5.20;3.40;;;;;;;17.74;78.01;99545.44;5103474;28;20047;-64
2022/07/18 05:21:43;;;;;;;8.38;4.60;;;;;;;17.73;77.40;99544.63;5099020;28;20313;-64
2022/07/18 05:24:09;;;;;;;11.77;6.65;;;;;;;17.74;76.33;99548.94;5103199;28;20031;-64
2022/07/18 05:26:35;;;;;;;9.95;6.00;;;;;;;17.75;77.68;99547.97;5103009;28;20370;-64
2022/07/18 05:29:01;;;;;;;12.93;8.23;;;;;;;17.78;76.56;99546.97;5103167;28;20103;-64
2022/07/18 05:31:26;;;;;;;12.15;7.95;;;;;;;17.78;76.85;99546.97;5102923;28;20051;-64
2022/07/18 05:33:52;;;;;;;11.23;7.13;;;;;;;17.61;73.47;99545.25;5102794;28;20031;-64
2022/07/18 05:36:18;;;;;;;12.68;8.60;;;;;;;17.70;74.97;99539.53;5103218;28;20032;-64
2022/07/18 05:38:43;;;;;;;12.20;8.43;;;;;;;17.58;74.42;99537.56;5102658;28;20024;-65
2022/07/18 05:41:09;;;;;;;11.80;8.73;;;;;;;17.71;75.29;99535.13;5102848;28;20032;-64
2022/07/18 05:43:34;;;;;;;8.82;7.55;;;;;;;17.79;75.12;99537.38;5102703;28;20039;-64
2022/07/18 05:46:00;;;;;;;10.25;7.30;;;;;;;17.83;75.21;99533.63;5102713;28;20030;-65
2022/07/18 05:48:26;;;;;;;12.82;7.53;;;;;;;17.76;75.19;99533.97;5102794;28;20032;-64
2022/07/18 05:50:52;;;;;;;11.07;7.95;;;;;;;17.65;75.39;99531.06;5102825;28;20058;-64
2022/07/18 05:53:18;;;;;;;10.35;7.15;;;;;;;17.64;76.03;99521.50;5102221;28;20028;-64
2022/07/18 05:55:43;;;;;;;12.27;8.05;;;;;;;17.59;76.93;99532.25;5102601;28;20054;-64
2022/07/18 05:58:09;;;;;;;8.60;5.82;;;;;;;17.55;77.16;99520.22;5099494;28;20035;-64
2022/07/18 06:00:35;;;;;;;6.80;4.90;;;;;;;17.48;75.84;99521.50;5105624;28;20032;-64
2022/07/18 06:03:00;;;;;;;5.25;4.60;;;;;;;17.54;74.80;99526.44;5101180;28;20039;-64
2022/07/18 06:05:26;;;;;;;6.35;4.65;;;;;;;17.64;74.80;99524.13;5101443;28;20048;-64
2022/07/18 06:07:54;;;;;;;4.72;4.18;;;;;;;17.67;73.87;99524.00;5096477;28;20032;-64
2022/07/18 06:10:20;;;;;;;4.32;3.70;;;;;;;17.74;73.67;99516.63;5094861;28;20035;-64
2022/07/18 06:12:46;;;;;;;4.65;3.75;;;;;;;17.69;74.86;99511.66;5102545;28;20297;-64
2022/07/18 06:15:13;;;;;;;7.70;5.07;;;;;;;17.75;74.53;99518.34;5102428;28;20328;-64
2022/07/18 06:17:38;;;;;;;6.50;3.47;;;;;;;17.63;73.22;99512.00;5102052;28;20091;-65
2022/07/18 06:20:05;;;;;;;5.43;3.00;;;;;;;17.66;73.92;99506.59;5102394;28;20031;-64
2022/07/18 06:22:31;;;;;;;3.10;2.80;;;;;;;17.72;73.65;99508.88;5102191;28;20028;-65
2022/07/18 06:24:56;;;;;;;4.00;2.88;;;;;;;17.65;72.69;99504.88;5101294;28;20016;-63
2022/07/18 06:27:22;;;;;;;5.47;2.85;;;;;;;17.75;72.99;99500.00;5093803;28;20217;-64
2022/07/18 06:29:47;;;;;;;3.40;2.88;;;;;;;17.80;74.15;99500.59;5093144;28;20036;-65
2022/07/18 06:32:13;;;;;;;3.45;3.15;;;;;;;17.72;75.58;99494.94;5087386;28;20031;-63
2022/07/18 06:34:39;;;;;;;7.43;3.45;;;;;;;17.75;77.20;99511.31;5094679;28;20306;-63
2022/07/18 06:37:04;;;;;;;3.17;2.38;;;;;;;17.74;75.68;99498.28;5095029;28;20255;-64
2022/07/18 06:39:30;;;;;;;3.20;2.33;;;;;;;17.69;76.98;99498.56;5100972;28;20032;-63
2022/07/18 06:41:56;;;;;;;3.25;2.55;;;;;;;17.71;77.28;99517.63;5102329;28;20024;-63
2022/07/18 06:44:21;;;;;;;5.32;2.92;;;;;;;17.63;74.98;99500.66;5102166;28;20046;-63
2022/07/18 06:46:47;;;;;;;3.65;2.70;;;;;;;17.74;75.87;99504.41;5101823;28;20324;-64
2022/07/18 06:49:12;;;;;;;3.65;2.47;;;;;;;17.57;73.86;99507.06;5100952;28;20066;-63
2022/07/18 06:51:38;;;;;;;3.20;2.42;;;;;;;17.60;75.34;99502.50;5101092;28;20044;-63
2022/07/18 06:54:04;;;;;;;3.17;2.60;;;;;;;17.52;75.95;99473.28;5100750;28;20020;-63
2022/07/18 06:56:29;;;;;;;2.90;2.53;;;;;;;17.88;75.29;99495.78;5101933;28;20024;-63
2022/07/18 06:58:55;;;;;;;3.10;2.28;;;;;;;17.99;77.01;99492.59;5093852;28;20036;-63
2022/07/18 07:01:21;;;;;;;3.10;2.80;;;;;;;18.09;75.94;99487.69;5085879;28;20029;-64
2022/07/18 07:03:47;;;;;;;4.80;2.95;;;;;;;18.09;74.76;99493.78;5093411;28;20040;-63
2022/07/18 07:06:15;;;;;;;2.60;2.40;;;;;;;18.17;74.95;99489.88;5068742;28;20226;-63
2022/07/18 07:08:42;;;;;;;3.58;2.75;;;;;;;18.17;76.13;99495.13;5088933;28;20024;-65
2022/07/18 07:11:07;;;;;;;4.18;2.83;;;;;;;18.29;76.39;99495.28;5093671;28;20032;-63
2022/07/18 07:13:33;;;;;;;2.33;2.13;;;;;;;18.41;76.79;99488.50;5100734;28;20032;-63
2022/07/18 07:15:59;;;;;;;6.22;3.53;;;;;;;18.35;73.59;99493.25;5101945;28;20247;-63
2022/07/18 07:18:24;;;;;;;2.95;2.60;;;;;;;18.39;75.03;99485.13;5105067;28;20023;-63
2022/07/18 07:20:50;;;;;;;10.13;6.93;;;;;;;18.32;73.97;99475.91;5104488;28;20367;-63
2022/07/18 07:23:16;;;;;;;3.60;2.40;;;;;;;18.39;73.27;99481.66;5105567;28;20024;-64
2022/07/18 07:25:42;;;;;;;3.67;2.20;;;;;;;18.34;72.69;99494.16;5105597;28;20034;-64
2022/07/18 07:28:08;;;;;;;3.08;2.22;;;;;;;18.35;72.33;99488.00;5105058;28;20048;-64
2022/07/18 07:30:34;;;;;;;2.75;2.00;;;;;;;18.44;72.04;99488.31;5105021;28;20028;-64
2022/07/18 07:33:02;;;;;;;2.35;2.15;;;;;;;18.52;75.24;99489.66;5105814;28;20035;-64
2022/07/18 07:35:28;;;;;;;3.00;2.03;;;;;;;18.48;73.05;99488.97;5104767;28;20340;-64
2022/07/18 07:37:56;;;;;;;1.95;1.83;;;;;;;18.52;74.27;99505.41;5104552;28;20194;-64
2022/07/18 07:40:24;;;;;;;2.35;2.00;;;;;;;18.45;75.58;99495.28;5104118;28;20047;-64
2022/07/18 07:42:51;;;;;;;2.67;2.00;;;;;;;18.35;71.42;99498.50;5102634;28;20020;-64
2022/07/18 07:45:17;;;;;;;2.33;2.00;;;;;;;18.41;69.73;99496.38;5104636;28;20032;-64
2022/07/18 07:47:43;;;;;;;2.50;1.98;;;;;;;18.52;70.20;99471.31;5104253;28;20024;-64
2022/07/18 07:50:10;;;;;;;3.78;2.33;;;;;;;18.63;68.84;99482.03;5104739;28;20066;-64
2022/07/18 07:52:37;;;;;;;2.78;1.90;;;;;;;18.59;69.38;99467.38;5103481;28;20220;-63
2022/07/18 07:55:04;;;;;;;4.05;1.80;;;;;;;18.71;66.94;99474.56;5104920;28;20032;-63
2022/07/18 07:57:30;;;;;;;3.25;2.03;;;;;;;18.86;68.33;99483.28;5104424;28;20079;-63
2022/07/18 07:59:55;;;;;;;1.88;1.73;;;;;;;18.87;64.58;99473.66;5104658;28;20335;-63
2022/07/18 08:02:21;;;;;;;3.70;3.40;;;;;;;19.07;66.88;99472.47;5104889;28;20020;-63
2022/07/18 08:04:47;;;;;;;4.03;3.50;;;;;;;19.16;69.39;99466.66;5104753;28;20028;-62
2022/07/18 08:07:12;;;;;;;2.15;1.85;;;;;;;19.22;66.90;99460.19;5104914;28;20239;-63
2022/07/18 08:09:38;;;;;;;1.98;1.77;;;;;;;19.37;68.24;99454.00;5102799;28;20028;-63
2022/07/18 08:12:05;;;;;;;1.70;1.60;;;;;;;19.40;69.64;99443.31;5104488;28;20043;-63
2022/07/18 08:14:33;;;;;;;3.70;2.10;;;;;;;19.53;68.55;99460.94;5104450;28;20028;-64
2022/07/18 08:16:59;;;;;;;2.08;1.88;;;;;;;19.63;69.25;99444.50;5102242;28;20091;-63
2022/07/18 08:19:25;;;;;;;1.98;1.70;;;;;;;19.71;68.67;99451.91;5088211;28;20129;-63
2022/07/18 08:21:50;;;;;;;4.85;1.83;;;;;;;19.77;66.24;99443.63;5104207;28;20071;-64
2022/07/18 08:24:16;;;;;;;2.20;1.70;;;;;;;19.81;66.13;99439.91;5104276;28;20032;-64
2022/07/18 08:26:42;;;;;;;3.17;1.50;;;;;;;19.71;65.76;99414.25;5104270;28;20036;-64
2022/07/18 08:29:08;;;;;;;1.88;1.70;;;;;;;19.83;62.91;99451.16;5102398;28;20073;-64
2022/07/18 08:31:34;;;;;;;2.58;1.95;;;;;;;19.71;61.95;99441.41;5110009;28;20059;-64
2022/07/18 08:33:59;;;;;;;2.08;1.70;;;;;;;19.80;62.83;99443.47;5103525;28;20216;-64
2022/07/18 08:36:26;;;;;;;3.25;2.05;;;;;;;19.64;62.94;99438.31;5103789;28;20031;-64
2022/07/18 08:38:52;;;;;;;1.90;1.73;;;;;;;19.93;64.61;99437.44;5104016;28;20425;-64
2022/07/18 08:41:18;;;;;;;7.95;5.93;;;;;;;20.09;65.47;99429.38;5104178;28;20034;-64
2022/07/18 08:43:45;;;;;;;2.83;2.42;;;;;;;20.18;64.54;99434.88;5101525;28;20059;-64
2022/07/18 08:46:12;;;;;;;3.38;2.15;;;;;;;20.28;63.97;99427.25;5102070;28;20051;-64
2022/07/18 08:48:40;;;;;;;4.75;2.00;;;;;;;20.48;62.09;99431.19;5103556;28;20086;-64
2022/07/18 08:51:05;;;;;;;3.47;1.77;;;;;;;20.61;61.16;99430.38;5103865;28;20070;-64
2022/07/18 08:53:33;;;;;;;6.57;2.30;;;;;;;20.65;60.59;99435.31;5103380;28;20251;-64
2022/07/18 08:55:59;;;;;;;2.28;1.60;;;;;;;20.35;54.14;99427.66;5103598;28;20028;-64
2022/07/18 08:58:25;;;;;;;1.65;1.23;;;;;;;20.36;54.69;99429.34;5103483;28;20369;-64
2022/07/18 09:00:51;;;;;;;1.67;1.05;;;;;;;20.46;55.61;99435.69;5103283;28;20135;-65
2022/07/18 09:03:16;;;;;;;2.78;1.80;;;;;;;20.66;58.66;99434.38;5103709;28;20028;-64
2022/07/18 09:05:42;;;;;;;2.30;1.60;;;;;;;20.65;60.14;99424.78;5103539;28;20024;-65
2022/07/18 09:08:12;;;;;;;2.10;1.60;;;;;;;20.66;56.30;99421.22;5103651;28;20263;-64
2022/07/18 09:10:52;;;;;;;3.53;1.55;;;;;;;20.48;59.39;99380.34;5103195;28;20103;-64
2022/07/18 09:13:21;;;;;;;3.67;1.65;;;;;;;20.70;60.18;99406.06;5103682;28;20028;-64
2022/07/18 09:15:58;;;;;;;2.63;2.10;;;;;;;20.78;60.19;99416.06;5103338;28;20050;-64
2022/07/18 09:18:32;;;;;;;6.07;2.70;;;;;;;20.86;60.87;99409.34;5103203;28;20217;-64
2022/07/18 09:21:01;;;;;;;8.60;5.60;;;;;;;21.03;61.59;99417.88;5103291;28;20020;-64
2022/07/18 09:23:29;;;;;;;2.83;2.22;;;;;;;21.02;60.96;99406.50;5103293;28;20037;-64
2022/07/18 09:25:54;;;;;;;3.67;1.98;;;;;;;21.11;61.59;99412.91;5103194;28;20212;-64
2022/07/18 09:28:20;;;;;;;5.47;1.98;;;;;;;21.22;60.08;99412.16;5103130;28;20048;-64
2022/07/18 09:30:46;;;;;;;3.63;1.70;;;;;;;21.24;59.40;99410.25;5102572;28;20081;-64
2022/07/18 09:33:12;;;;;;;3.05;1.38;;;;;;;21.15;57.45;99417.03;5101509;28;20024;-64
2022/07/18 09:35:52;;;;;;;2.13;1.55;;;;;;;20.94;54.01;99413.25;5102842;28;20039;-64
2022/07/18 09:38:20;;;;;;;3.30;1.55;;;;;;;20.90;54.71;99411.78;5102302;28;20038;-64
2022/07/18 09:40:51;;;;;;;1.77;1.30;;;;;;;20.63;54.65;99405.59;5102584;28;20048;-63
2022/07/18 09:43:20;;;;;;;2.45;1.88;;;;;;;20.46;55.89;99401.47;5102851;28;20086;-63
2022/07/18 09:45:47;;;;;;;3.45;1.42;;;;;;;20.46;56.47;99398.84;5102567;28;20343;-63
2022/07/18 09:48:15;;;;;;;2.63;1.65;;;;;;;20.54;56.10;99353.63;5102787;28;20316;-63
2022/07/18 09:50:55;;;;;;;2.90;1.58;;;;;;;21.05;57.42;99392.28;5102539;28;20032;-63
2022/07/18 09:53:34;;;;;;;2.60;1.33;;;;;;;20.79;54.58;99344.06;5096484;28;20035;-63
2022/07/18 09:56:04;;;;;;;1.92;1.30;;;;;;;21.15;56.13;99380.16;5094087;28;20279;-62
2022/07/18 09:58:33;;;;;;;1.65;1.50;;;;;;;21.14;54.24;99398.69;5093218;28;20154;-63
2022/07/18 10:01:00;;;;;;;1.40;1.30;;;;;;;20.91;53.05;99351.09;5088563;28;20036;-63
2022/07/18 10:03:27;;;;;;;1.40;1.30;;;;;;;21.16;55.02;99366.03;5102563;28;20027;-63
2022/07/18 10:05:54;;;;;;;2.15;1.30;;;;;;;21.18;53.84;99376.47;5102480;28;20248;-63
2022/07/18 10:08:23;;;;;;;4.07;1.80;;;;;;;21.25;54.22;99375.06;5102584;28;20028;-63
2022/07/18 10:10:51;;;;;;;3.88;1.58;;;;;;;21.14;54.10;99373.19;5102478;28;20028;-63
2022/07/18 10:13:18;;;;;;;2.60;2.22;;;;;;;20.92;54.70;99378.28;5102649;28;20028;-63
2022/07/18 10:15:45;;;;;;;1.80;1.70;;;;;;;21.15;55.51;99374.00;5102655;28;20074;-63
2022/07/18 10:18:17;;;;;;;2.42;2.03;;;;;;;20.75;55.04;99327.66;5101904;28;20324;-64
2022/07/18 10:20:48;;;;;;;2.60;2.08;;;;;;;21.01;55.76;99357.41;5099751;28;20025;-65
2022/07/18 10:23:24;;;;;;;2.33;1.90;;;;;;;20.69;56.42;99334.19;5101465;28;20316;-65
2022/07/18 10:26:25;;;;;;;2.00;1.80;;;;;;;20.87;55.44;99360.16;5101440;28;20027;-65
2022/07/18 10:29:00;;;;;;;3.08;1.40;;;;;;;21.17;57.67;99364.22;5101969;28;20039;-65
2022/07/18 10:31:32;;;;;;;3.33;1.80;;;;;;;20.98;56.88;99317.31;5107109;28;20103;-65
2022/07/18 10:34:07;;;;;;;2.00;1.80;;;;;;;21.15;53.11;99353.81;5089243;28;20269;-65
2022/07/18 10:36:54;;;;;;;1.95;1.40;;;;;;;21.11;53.00;99357.59;5100986;28;20336;-64
2022/07/18 10:39:31;;;;;;;1.98;1.52;;;;;;;21.34;53.38;99353.31;5088721;28;20075;-65
2022/07/18 10:42:03;;;;;;;2.05;1.85;;;;;;;21.01;53.07;99346.03;5100809;28;20028;-66
2022/07/18 10:44:31;;;;;;;5.88;1.90;;;;;;;21.38;54.26;99351.31;5101489;28;20227;-65
2022/07/18 10:47:10;;;;;;;2.83;1.70;;;;;;;21.50;55.19;99347.78;5100868;28;20040;-64
2022/07/18 10:49:51;;;;;;;2.42;1.90;;;;;;;21.65;54.15;99340.59;5100380;28;20308;-64
2022/07/18 10:52:26;;;;;;;2.33;1.75;;;;;;;21.44;53.12;99335.06;5103545;28;20031;-65
2022/07/18 10:55:01;;;;;;;3.42;1.70;;;;;;;21.27;52.45;99335.44;5104519;28;20035;-63
2022/07/18 10:57:28;;;;;;;1.58;1.48;;;;;;;21.42;53.67;99338.75;5086011;28;20029;-64
2022/07/18 11:00:08;;;;;;;1.60;1.50;;;;;;;21.53;53.70;99331.81;5102094;28;20043;-64
2022/07/18 11:02:37;;;;;;;3.30;1.83;;;;;;;21.46;53.94;99324.41;5106028;28;20083;-63
2022/07/18 11:05:23;;;;;;;3.55;1.75;;;;;;;21.60;53.58;99320.81;5105878;28;20313;-64
2022/07/18 11:07:57;;;;;;;2.60;1.90;;;;;;;21.71;53.79;99326.97;5105565;28;20032;-64
2022/07/18 11:10:49;;;;;;;4.05;2.25;;;;;;;21.73;54.50;99324.22;5105671;28;20246;-66
2022/07/18 11:13:30;;;;;;;2.53;1.90;;;;;;;21.92;54.63;99330.75;5105657;28;20032;-65
2022/07/18 11:16:14;;;;;;;1.80;1.70;;;;;;;22.01;54.93;99327.44;5105220;28;20082;-65
2022/07/18 11:18:43;;;;;;;3.63;2.00;;;;;;;22.01;53.67;99328.28;5105573;28;20032;-64
2022/07/18 11:21:28;;;;;;;3.03;2.45;;;;;;;22.07;53.70;99321.69;5104928;28;20058;-65
2022/07/18 11:24:08;;;;;;;1.88;1.75;;;;;;;22.16;53.61;99317.53;5103526;28;20035;-65
2022/07/18 11:26:36;;;;;;;3.25;1.80;;;;;;;21.77;52.47;99275.59;5099876;28;20044;-65
2022/07/18 11:29:05;;;;;;;1.60;1.50;;;;;;;21.92;52.01;99322.84;5104859;28;20044;-65
2022/07/18 11:31:42;;;;;;;2.58;1.70;;;;;;;21.70;51.07;99319.16;5104494;28;20047;-65
2022/07/18 11:34:08;;;;;;;3.85;1.83;;;;;;;21.68;52.83;99305.28;5105308;28;20023;-65
2022/07/18 11:36:33;;;;;;;3.53;2.03;;;;;;;21.77;51.89;99312.50;5105027;28;20032;-65